Time;durP1;ratioP1;P1;durP2;ratioP2;P2;SDS_P1;SDS_P2;PMS_P1;PMS_P2;Temp;Humidity;BMP_temperature;BMP_pressure;BME280_temperature;BME280_humidity;BME280_pressure;Samples;Min_cycle;Max_cycle;Signal;HPM_P1;HPM_P2
2023/10/17 00:01:33;;;;;;;25.33;13.37;;;8.70;99.90;;;;;;5009142;28;20473;-79
2023/10/17 00:04:09;;;;;;;17.73;12.70;;;8.70;99.90;;;;;;5016945;28;20480;-79
2023/10/17 00:06:34;;;;;;;22.37;14.43;;;8.60;99.90;;;;;;5011371;28;20446;-80
2023/10/17 00:09:05;;;;;;;18.43;12.90;;;8.50;99.90;;;;;;5015671;28;20446;-77
2023/10/17 00:11:39;;;;;;;21.80;13.07;;;8.50;99.90;;;;;;5012939;28;20216;-79
2023/10/17 00:14:11;;;;;;;21.33;14.03;;;8.50;99.90;;;;;;5013068;28;20493;-81
2023/10/17 00:16:37;;;;;;;20.07;11.97;;;8.50;99.90;;;;;;5012052;28;20446;-79
2023/10/17 00:19:09;;;;;;;26.00;13.13;;;8.50;99.90;;;;;;5010891;28;20469;-80
2023/10/17 00:21:36;;;;;;;22.10;12.70;;;8.40;99.90;;;;;;5016260;28;20504;-79
2023/10/17 00:24:08;;;;;;;31.33;14.20;;;8.40;99.90;;;;;;5011279;28;20508;-79
2023/10/17 00:26:38;;;;;;;20.40;13.30;;;8.30;99.90;;;;;;4996310;28;20466;-79
2023/10/17 00:29:10;;;;;;;21.33;12.30;;;8.30;99.90;;;;;;5009432;28;20430;-79
2023/10/17 00:31:37;;;;;;;20.20;13.17;;;8.30;99.90;;;;;;5010879;28;20846;-79
2023/10/17 00:34:16;;;;;;;17.60;12.63;;;8.30;99.90;;;;;;5011632;28;20508;-80
2023/10/17 00:37:00;;;;;;;21.20;12.67;;;8.30;99.90;;;;;;5011086;28;20643;-80
2023/10/17 00:39:32;;;;;;;23.43;12.30;;;8.40;99.90;;;;;;5009765;28;20438;-80
2023/10/17 00:44:39;;;;;;;18.30;11.47;;;8.50;99.90;;;;;;5010125;28;20560;-79
2023/10/17 00:47:08;;;;;;;22.07;12.53;;;8.60;99.90;;;;;;5007043;28;20437;-79
2023/10/17 00:49:42;;;;;;;20.40;12.60;;;8.60;99.90;;;;;;5009670;28;20434;-79
2023/10/17 00:52:32;;;;;;;16.70;12.23;;;8.60;99.90;;;;;;5005455;28;20517;-79
2023/10/17 00:54:59;;;;;;;19.30;12.30;;;8.50;99.90;;;;;;5004257;28;20466;-79
2023/10/17 00:57:28;;;;;;;16.77;12.13;;;8.50;99.90;;;;;;5019687;28;20446;-81
2023/10/17 00:59:55;;;;;;;19.43;12.47;;;8.50;99.90;;;;;;5005265;28;20730;-79
2023/10/17 01:02:23;;;;;;;31.80;13.17;;;8.60;99.90;;;;;;5004439;28;20462;-78
2023/10/17 01:04:50;;;;;;;25.67;11.87;;;8.60;99.90;;;;;;5013144;28;20482;-79
2023/10/17 01:07:31;;;;;;;17.10;12.50;;;8.60;99.90;;;;;;5019610;28;20449;-80
2023/10/17 01:10:10;;;;;;;21.93;12.20;;;8.60;99.90;;;;;;5013394;28;20441;-82
2023/10/17 01:13:26;;;;;;;21.60;12.83;;;8.60;99.90;;;;;;5023681;28;20441;-81
2023/10/17 01:15:27;;;;;;;21.40;11.00;;;8.60;99.90;;;;;;5009912;28;20458;-80
2023/10/17 01:17:54;;;;;;;18.00;11.13;;;8.50;99.90;;;;;;5012477;28;20446;-80
2023/10/17 01:20:20;;;;;;;16.30;10.80;;;8.50;99.90;;;;;;5013621;28;20508;-81
2023/10/17 01:22:46;;;;;;;16.20;11.10;;;8.50;99.90;;;;;;5005431;28;20466;-80
2023/10/17 01:25:26;;;;;;;17.03;9.77;;;8.60;99.90;;;;;;5019200;28;20470;-80
2023/10/17 01:27:52;;;;;;;17.40;10.13;;;8.60;99.90;;;;;;5021904;28;20442;-79
2023/10/17 01:30:18;;;;;;;23.17;10.37;;;8.50;99.90;;;;;;5016544;28;20815;-81
2023/10/17 01:32:44;;;;;;;21.27;10.53;;;8.50;99.90;;;;;;5015347;28;20453;-79
2023/10/17 01:35:11;;;;;;;16.70;11.00;;;8.40;99.90;;;;;;5023632;28;20466;-81
2023/10/17 01:37:36;;;;;;;13.83;9.10;;;8.40;99.90;;;;;;5028196;28;20194;-80
2023/10/17 01:40:22;;;;;;;19.27;10.30;;;8.40;99.90;;;;;;5020420;28;20537;-80
2023/10/17 01:42:51;;;;;;;20.67;10.63;;;8.40;99.90;;;;;;5017087;28;20203;-81
2023/10/17 01:45:19;;;;;;;16.40;11.47;;;8.40;99.90;;;;;;5017208;28;20470;-81
2023/10/17 01:47:45;;;;;;;17.70;10.23;;;8.50;99.90;;;;;;5011398;28;20457;-80
2023/10/17 01:50:11;;;;;;;19.90;10.60;;;8.50;99.90;;;;;;5023794;28;20450;-80
2023/10/17 01:52:37;;;;;;;21.60;10.37;;;8.60;99.90;;;;;;5020530;28;20657;-80
2023/10/17 01:55:10;;;;;;;18.67;10.13;;;8.60;99.90;;;;;;5017020;28;20207;-81
2023/10/17 01:57:40;;;;;;;15.53;8.60;;;8.60;99.90;;;;;;5014965;28;20476;-81
2023/10/17 02:02:55;;;;;;;18.93;10.33;;;8.70;99.90;;;;;;5015759;28;20467;-79
2023/10/17 02:05:21;;;;;;;13.30;9.60;;;8.70;86.90;;;;;;5022806;28;20469;-81
2023/10/17 02:07:48;;;;;;;15.87;9.67;;;8.70;33.90;;;;;;5026283;28;20197;-81
2023/10/17 02:10:17;;;;;;;15.67;10.67;;;8.70;1.00;;;;;;5010542;28;20462;-81
2023/10/17 02:12:47;;;;;;;17.00;10.63;;;8.70;1.00;;;;;;5005812;28;20485;-79
2023/10/17 02:15:19;;;;;;;14.60;10.07;;;8.60;1.00;;;;;;5009876;28;20518;-81
2023/10/17 02:17:45;;;;;;;16.20;9.73;;;8.70;1.00;;;;;;5019563;28;20446;-81
2023/10/17 02:23:08;;;;;;;23.70;11.33;;;8.70;1.00;;;;;;5009653;28;21273;-79
2023/10/17 02:25:37;;;;;;;23.60;10.93;;;8.70;1.00;;;;;;5025338;28;20450;-81
2023/10/17 02:28:03;;;;;;;14.75;10.25;;;8.60;1.00;;;;;;5015309;28;20495;-80
2023/10/17 02:30:28;;;;;;;17.80;8.63;;;8.60;1.00;;;;;;5008607;28;20221;-81
2023/10/17 02:32:54;;;;;;;12.47;9.00;;;8.60;1.00;;;;;;5018700;28;20492;-80
2023/10/17 02:35:28;;;;;;;19.00;10.33;;;8.60;1.00;;;;;;5022136;28;20231;-81
2023/10/17 02:37:57;;;;;;;18.33;11.17;;;8.50;1.00;;;;;;5018172;28;20282;-80
2023/10/17 02:40:23;;;;;;;17.63;10.70;;;8.40;99.90;;;;;;5018558;28;20441;-81
2023/10/17 02:42:49;;;;;;;18.00;9.80;;;8.30;99.90;;;;;;5033902;28;20474;-80
2023/10/17 02:45:24;;;;;;;18.17;8.63;;;8.30;99.90;;;;;;5012941;28;20497;-79
2023/10/17 02:47:54;;;;;;;19.33;9.68;;;8.30;99.90;;;;;;5013261;28;20183;-79
2023/10/17 02:52:55;;;;;;;18.33;8.10;;;8.20;99.90;;;;;;5007404;28;20458;-79
2023/10/17 02:55:24;;;;;;;15.33;7.77;;;8.20;99.90;;;;;;4996451;28;20470;-80
2023/10/17 02:57:53;;;;;;;17.45;8.98;;;8.30;99.90;;;;;;5012020;28;20195;-79
2023/10/17 03:00:34;;;;;;;12.27;7.20;;;8.30;99.90;;;;;;5013217;28;20186;-79
2023/10/17 03:03:00;;;;;;;10.73;7.60;;;8.30;99.90;;;;;;5009049;28;20461;-78
2023/10/17 03:05:27;;;;;;;12.97;7.53;;;8.30;99.90;;;;;;5012578;28;20503;-79
2023/10/17 03:07:53;;;;;;;17.17;7.50;;;8.20;99.90;;;;;;5010040;28;20467;-79
2023/10/17 03:10:22;;;;;;;16.17;9.20;;;8.20;99.90;;;;;;5008927;28;20912;-79
2023/10/17 03:13:03;;;;;;;12.50;8.10;;;8.20;99.90;;;;;;5009661;28;20222;-79
2023/10/17 03:15:29;;;;;;;16.33;8.10;;;8.10;99.90;;;;;;5013205;28;20480;-79
2023/10/17 03:18:00;;;;;;;19.20;8.60;;;8.10;99.90;;;;;;5007483;28;20450;-79
2023/10/17 03:20:36;;;;;;;13.10;8.27;;;8.20;99.90;;;;;;5011582;28;20466;-81
2023/10/17 03:23:03;;;;;;;17.67;8.10;;;8.20;99.90;;;;;;4998022;28;20531;-79
2023/10/17 03:25:36;;;;;;;12.90;8.10;;;8.20;99.90;;;;;;5011264;28;20462;-79
2023/10/17 03:28:04;;;;;;;10.90;7.60;;;8.20;99.90;;;;;;5008692;28;20477;-80
2023/10/17 03:30:29;;;;;;;15.77;8.10;;;8.20;99.90;;;;;;5016474;28;20493;-80
2023/10/17 03:35:25;;;;;;;16.57;6.93;;;8.20;99.90;;;;;;5016838;28;20199;-79
2023/10/17 03:37:54;;;;;;;19.70;8.47;;;8.30;99.90;;;;;;5011403;28;21055;-79
2023/10/17 03:40:29;;;;;;;15.43;7.37;;;8.30;99.90;;;;;;5009137;28;20438;-81
2023/10/17 03:42:55;;;;;;;15.60;7.17;;;8.40;99.90;;;;;;5004333;28;20481;-79
2023/10/17 03:45:26;;;;;;;13.23;7.40;;;8.40;99.90;;;;;;5008062;28;20464;-79
2023/10/17 03:47:53;;;;;;;13.63;7.87;;;8.30;99.90;;;;;;5012036;28;20450;-81
2023/10/17 03:50:37;;;;;;;12.93;6.43;;;8.40;99.90;;;;;;5012834;28;20442;-79
2023/10/17 03:53:06;;;;;;;10.43;6.90;;;8.40;99.90;;;;;;5006674;28;20525;-78
2023/10/17 03:55:35;;;;;;;11.97;7.00;;;8.40;97.90;;;;;;5001855;28;20894;-80
2023/10/17 03:58:01;;;;;;;11.60;7.40;;;8.40;43.60;;;;;;4999494;28;20473;-79
2023/10/17 04:00:33;;;;;;;13.20;7.07;;;8.40;38.80;;;;;;5009254;28;20839;-80
2023/10/17 04:03:00;;;;;;;9.23;6.23;;;8.30;30.90;;;;;;5011724;28;20477;-79
2023/10/17 04:05:28;;;;;;;13.20;6.47;;;8.30;99.90;;;;;;5013373;28;20473;-79
2023/10/17 04:07:54;;;;;;;14.00;7.13;;;8.30;99.90;;;;;;5007139;28;20528;-79
2023/10/17 04:10:20;;;;;;;10.30;6.63;;;8.30;99.90;;;;;;5001959;28;20787;-79
2023/10/17 04:12:49;;;;;;;13.37;6.50;;;8.40;99.90;;;;;;5005150;28;20501;-78
2023/10/17 04:15:18;;;;;;;13.97;7.00;;;8.40;65.70;;;;;;5009903;28;20470;-79
2023/10/17 04:17:47;;;;;;;13.57;6.90;;;8.40;39.60;;;;;;5012267;28;20450;-79
2023/10/17 04:20:13;;;;;;;13.23;7.57;;;8.40;9.80;;;;;;5016433;28;20952;-79
2023/10/17 04:22:45;;;;;;;15.70;7.60;;;8.40;6.20;;;;;;5014881;28;20478;-80
2023/10/17 04:25:20;;;;;;;16.70;7.00;;;8.30;26.90;;;;;;5014880;28;20207;-80
2023/10/17 04:27:54;;;;;;;11.87;6.60;;;8.30;95.30;;;;;;5007040;28;20514;-81
2023/10/17 04:30:29;;;;;;;9.90;6.90;;;8.30;99.90;;;;;;5008908;28;20437;-80
2023/10/17 04:33:05;;;;;;;12.20;6.87;;;8.30;99.90;;;;;;5018518;28;20457;-79
2023/10/17 04:35:32;;;;;;;20.20;7.20;;;8.20;99.90;;;;;;5027239;28;20462;-80
2023/10/17 04:38:19;;;;;;;10.57;7.27;;;8.30;99.90;;;;;;5019822;28;20449;-79
2023/10/17 04:43:55;;;;;;;15.70;6.27;;;8.20;99.90;;;;;;5038109;28;20472;-79
2023/10/17 04:46:34;;;;;;;17.17;7.13;;;8.20;99.90;;;;;;5019403;28;20461;-81
2023/10/17 04:49:17;;;;;;;13.00;6.10;;;8.30;99.90;;;;;;5021840;28;20442;-81
2023/10/17 04:51:42;;;;;;;15.40;6.80;;;8.30;99.90;;;;;;5022063;28;20406;-79
2023/10/17 04:54:31;;;;;;;10.93;7.30;;;8.30;99.90;;;;;;5021566;28;20438;-79
2023/10/17 04:57:00;;;;;;;12.90;6.27;;;8.40;98.90;;;;;;5019601;28;20610;-81
2023/10/17 05:02:35;;;;;;;19.03;7.10;;;8.30;1.00;;;;;;5021962;28;20436;-81
2023/10/17 06:18:50;;;;;;;14.40;6.50;;;8.20;99.90;;;;;;5012604;28;20716;-81
2023/10/17 06:21:19;;;;;;;12.73;6.82;;;8.20;99.90;;;;;;5005005;28;20195;-81
2023/10/17 06:34:38;;;;;;;9.10;6.17;;;8.30;60.90;;;;;;5013985;28;20489;-80
2023/10/17 06:37:07;;;;;;;11.07;7.50;;;8.40;23.00;;;;;;5012184;28;20453;-80
2023/10/17 06:39:36;;;;;;;14.67;7.40;;;8.40;1.00;;;;;;5011548;28;20445;-79
2023/10/17 06:42:15;;;;;;;12.80;6.60;;;8.40;4.40;;;;;;5014058;28;20445;-79
2023/10/17 06:44:54;;;;;;;14.30;9.10;;;8.50;9.70;;;;;;5014664;28;20454;-80
2023/10/17 06:47:41;;;;;;;16.20;9.90;;;8.50;1.00;;;;;;5008850;28;20438;-80
2023/10/17 06:55:28;;;;;;;9.27;6.73;;;8.70;1.00;;;;;;5005833;28;20485;-79
2023/10/17 06:57:56;;;;;;;8.20;7.10;;;8.70;1.00;;;;;;5014208;28;20501;-79
2023/10/17 07:00:27;;;;;;;7.50;5.97;;;8.70;1.00;;;;;;5013923;28;20434;-80
2023/10/17 07:02:56;;;;;;;9.60;6.13;;;8.80;1.00;;;;;;5011880;28;20504;-79
2023/10/17 07:05:23;;;;;;;7.10;6.17;;;8.80;99.90;;;;;;5010884;28;20480;-79
2023/10/17 07:07:57;;;;;;;11.83;6.70;;;8.90;99.90;;;;;;5011847;28;20426;-78
2023/10/17 07:13:35;;;;;;;9.77;6.60;;;9.20;1.00;;;;;;5010152;28;20960;-79
2023/10/17 07:16:11;;;;;;;9.53;6.00;;;9.30;99.90;;;;;;5011346;28;20449;-82
2023/10/17 07:18:51;;;;;;;8.77;6.30;;;9.30;56.40;;;;;;5010500;28;21237;-79
2023/10/17 07:21:22;;;;;;;8.37;5.83;;;9.50;1.00;;;;;;5014946;28;20497;-79
2023/10/17 07:23:48;;;;;;;10.13;7.13;;;9.60;1.00;;;;;;5011444;28;20473;-79
2023/10/17 07:26:17;;;;;;;11.07;5.87;;;9.70;99.90;;;;;;5013234;28;20452;-79
2023/10/17 07:28:49;;;;;;;13.97;6.93;;;9.70;1.00;;;;;;5010506;28;20462;-80
2023/10/17 07:31:16;;;;;;;13.17;6.20;;;9.70;99.90;;;;;;5010083;28;20862;-81
2023/10/17 07:33:43;;;;;;;8.83;5.57;;;9.90;99.90;;;;;;5015596;28;20441;-79
2023/10/17 07:36:15;;;;;;;10.33;5.87;;;9.90;1.00;;;;;;5015073;28;20845;-80
2023/10/17 07:38:43;;;;;;;10.37;6.40;;;9.90;1.00;;;;;;5018615;28;20975;-81
2023/10/17 07:41:15;;;;;;;9.40;5.40;;;10.00;1.00;;;;;;5016477;28;20494;-80
2023/10/17 07:43:44;;;;;;;8.00;6.57;;;10.00;99.90;;;;;;5017440;28;21004;-79
2023/10/17 07:46:18;;;;;;;10.80;6.37;;;10.10;1.00;;;;;;5017378;28;20423;-81
2023/10/17 07:48:50;;;;;;;10.47;7.10;;;10.20;1.00;;;;;;5017757;28;20426;-80
2023/10/17 07:51:16;;;;;;;10.93;6.57;;;10.10;39.70;;;;;;5017916;28;20426;-80
2023/10/17 07:53:45;;;;;;;9.73;7.03;;;10.20;1.00;;;;;;5016170;28;20459;-79
2023/10/17 07:56:20;;;;;;;10.90;5.63;;;10.30;99.90;;;;;;5014431;28;20798;-81
2023/10/17 07:59:04;;;;;;;9.53;6.10;;;10.30;99.90;;;;;;5016161;28;20406;-80
2023/10/17 08:01:42;;;;;;;6.63;5.30;;;10.40;99.90;;;;;;5013573;28;20639;-80
2023/10/17 08:04:17;;;;;;;8.23;6.30;;;10.60;99.90;;;;;;5018813;28;20473;-79
2023/10/17 08:06:44;;;;;;;10.70;5.70;;;10.70;1.00;;;;;;5021514;28;20425;-81
2023/10/17 08:11:52;;;;;;;7.40;5.00;;;10.70;99.90;;;;;;5022657;28;20502;-81
2023/10/17 08:14:40;;;;;;;9.73;6.27;;;10.80;99.90;;;;;;5021347;28;20449;-81
2023/10/17 08:17:08;;;;;;;6.77;5.07;;;10.80;99.90;;;;;;5022132;28;20529;-81
2023/10/17 08:22:18;;;;;;;8.43;5.33;;;10.70;4.40;;;;;;5026108;28;20441;-80
2023/10/17 08:24:51;;;;;;;6.23;4.57;;;10.80;5.10;;;;;;5025162;28;20450;-81
2023/10/17 08:30:00;;;;;;;25.23;5.90;;;10.80;1.00;;;;;;5030524;28;20429;-81
2023/10/17 08:35:17;;;;;;;9.43;5.27;;;11.00;1.00;;;;;;5032335;28;20485;-80
2023/10/17 08:37:46;;;;;;;10.30;5.00;;;11.20;99.90;;;;;;5028919;28;20218;-81
2023/10/17 08:43:00;;;;;;;6.50;4.43;;;11.70;99.90;;;;;;5023165;28;20979;-81
2023/10/17 08:45:27;;;;;;;6.80;5.50;;;11.90;99.90;;;;;;5026646;28;20492;-80
2023/10/17 08:48:00;;;;;;;11.37;6.73;;;12.30;26.80;;;;;;5028390;28;20426;-80
2023/10/17 08:50:30;;;;;;;8.20;5.30;;;12.60;1.00;;;;;;5027227;28;20489;-80
2023/10/17 08:52:59;;;;;;;8.40;5.50;;;12.70;1.00;;;;;;5025504;28;20441;-78
2023/10/17 08:55:25;;;;;;;6.37;4.43;;;12.90;1.00;;;;;;5028547;28;20454;-79
2023/10/17 08:57:51;;;;;;;11.47;4.23;;;12.80;1.00;;;;;;5030563;28;20859;-80
2023/10/17 09:00:48;;;;;;;6.43;5.00;;;12.90;1.00;;;;;;5030535;28;20415;-79
2023/10/17 09:03:37;;;;;;;7.50;3.97;;;13.00;1.00;;;;;;5018515;28;20565;-79
2023/10/17 09:06:07;;;;;;;9.33;4.37;;;13.10;1.00;;;;;;5020663;28;20430;-79
2023/10/17 09:11:08;;;;;;;5.73;3.90;;;13.30;1.00;;;;;;5022875;28;20434;-80
2023/10/17 09:14:11;;;;;;;5.17;3.33;;;13.50;1.00;;;;;;5020931;28;20433;-80
2023/10/17 09:16:34;;;;;;;5.70;3.50;;;14.30;1.00;;;;;;5020877;28;20818;-78
2023/10/17 09:19:09;;;;;;;5.67;3.77;;;14.40;1.00;;;;;;5020263;28;20456;-80
2023/10/17 09:21:35;;;;;;;7.50;3.87;;;15.40;1.00;;;;;;5013923;28;20417;-79
2023/10/17 09:24:00;;;;;;;4.30;2.90;;;16.60;1.00;;;;;;5018114;28;20470;-80
2023/10/17 09:26:26;;;;;;;3.63;2.90;;;17.80;1.00;;;;;;5018903;28;20181;-81
2023/10/17 09:29:00;;;;;;;9.27;3.60;;;17.90;1.00;;;;;;5020620;28;20214;-80
2023/10/17 09:31:26;;;;;;;5.23;3.10;;;18.20;1.00;;;;;;5017747;28;20641;-81
2023/10/17 09:33:53;;;;;;;5.73;3.30;;;17.70;99.90;;;;;;5022386;28;20464;-80
2023/10/17 09:36:19;;;;;;;8.57;3.67;;;18.50;99.90;;;;;;5018729;28;20445;-80
2023/10/17 09:38:45;;;;;;;7.57;3.33;;;18.70;99.90;;;;;;5018296;28;20442;-79
2023/10/17 09:41:20;;;;;;;5.37;2.70;;;19.80;99.90;;;;;;5018894;28;20176;-80
2023/10/17 09:43:51;;;;;;;3.87;2.90;;;21.70;99.90;;;;;;5016921;28;20462;-78
2023/10/17 09:46:20;;;;;;;4.27;2.60;;;23.70;99.90;;;;;;5016859;28;20433;-80
2023/10/17 09:48:48;;;;;;;4.23;2.70;;;24.10;99.90;;;;;;5012408;28;20483;-80
2023/10/17 09:51:22;;;;;;;5.00;2.37;;;25.20;99.90;;;;;;5017227;28;20434;-81
2023/10/17 09:53:53;;;;;;;3.57;2.40;;;26.30;99.90;;;;;;5016442;28;20453;-81
2023/10/17 09:56:22;;;;;;;5.23;2.37;;;27.30;99.90;;;;;;5015737;28;20433;-81
2023/10/17 09:58:51;;;;;;;4.60;2.20;;;27.30;99.90;;;;;;5017846;28;20413;-81
2023/10/17 10:01:26;;;;;;;4.10;2.47;;;26.80;99.90;;;;;;5016724;28;20437;-81
2023/10/17 10:03:56;;;;;;;5.30;2.20;;;27.10;99.90;;;;;;5022142;28;20470;-81
2023/10/17 10:06:30;;;;;;;7.03;2.60;;;27.30;99.90;;;;;;5015873;28;20453;-81
2023/10/17 10:09:17;;;;;;;6.73;2.80;;;25.50;99.90;;;;;;5014727;28;20814;-81
2023/10/17 10:11:48;;;;;;;12.17;4.17;;;25.20;99.90;;;;;;5012873;28;20871;-81
2023/10/17 10:14:27;;;;;;;6.20;3.50;;;25.20;99.90;;;;;;5016199;28;20516;-81
2023/10/17 10:16:55;;;;;;;5.97;3.33;;;25.50;99.90;;;;;;5016436;28;20452;-79
2023/10/17 10:19:24;;;;;;;4.50;2.47;;;26.00;99.90;;;;;;5018148;28;20426;-81
2023/10/17 10:21:59;;;;;;;4.53;1.90;;;26.40;99.90;;;;;;5019460;28;20448;-80
2023/10/17 10:24:32;;;;;;;4.30;2.57;;;26.20;99.90;;;;;;5016352;28;20476;-81
2023/10/17 10:27:25;;;;;;;4.73;2.33;;;26.40;99.90;;;;;;5015240;28;20954;-81
2023/10/17 10:29:53;;;;;;;3.97;2.77;;;26.30;99.90;;;;;;5011699;28;20417;-81
2023/10/17 10:32:25;;;;;;;4.03;2.20;;;26.90;99.90;;;;;;5017233;28;20422;-80
2023/10/17 10:34:51;;;;;;;7.87;2.50;;;26.10;99.90;;;;;;5021681;28;20458;-81
2023/10/17 10:37:18;;;;;;;6.40;2.67;;;26.60;99.90;;;;;;5017732;28;20434;-81
2023/10/17 10:40:16;;;;;;;8.23;3.00;;;26.50;99.90;;;;;;5020365;28;20414;-81
2023/10/17 10:42:49;;;;;;;4.83;2.17;;;25.40;99.90;;;;;;5011651;28;20919;-81
2023/10/17 10:45:35;;;;;;;5.23;2.10;;;25.80;99.90;;;;;;5020392;28;20870;-81
2023/10/17 10:48:04;;;;;;;6.93;2.60;;;25.40;99.90;;;;;;5021005;28;20458;-81
2023/10/17 10:50:33;;;;;;;3.80;2.20;;;25.00;99.90;;;;;;5023760;28;20433;-81
2023/10/17 10:53:22;;;;;;;6.40;2.57;;;25.20;99.90;;;;;;5025409;28;20419;-81
2023/10/17 10:55:56;;;;;;;6.10;2.47;;;24.80;99.90;;;;;;5018754;28;20446;-81
2023/10/17 10:58:23;;;;;;;5.50;2.30;;;25.30;99.90;;;;;;5021273;28;20976;-80
2023/10/17 11:00:49;;;;;;;4.23;2.80;;;24.90;99.90;;;;;;5019391;28;20418;-81
2023/10/17 11:03:17;;;;;;;4.17;3.37;;;25.00;99.90;;;;;;5027434;28;20499;-81
2023/10/17 11:05:53;;;;;;;5.40;3.43;;;25.10;99.90;;;;;;5013815;28;20236;-81
2023/10/17 11:08:23;;;;;;;5.20;2.90;;;25.20;99.90;;;;;;5023806;28;20413;-82
2023/10/17 11:10:49;;;;;;;3.50;2.60;;;25.10;99.90;;;;;;5024110;28;20456;-82
2023/10/17 11:13:17;;;;;;;6.03;5.60;;;24.40;99.90;;;;;;5023442;28;20797;-81
2023/10/17 11:15:44;;;;;;;3.17;2.13;;;23.90;99.90;;;;;;5013526;28;20203;-82
2023/10/17 11:18:10;;;;;;;4.60;2.13;;;24.30;99.90;;;;;;5023185;28;20426;-80
2023/10/17 11:20:36;;;;;;;3.67;1.67;;;24.10;99.90;;;;;;5023233;28;20418;-81
2023/10/17 11:23:08;;;;;;;6.43;2.00;;;24.90;99.90;;;;;;5023230;28;20534;-81
2023/10/17 11:25:34;;;;;;;4.27;2.10;;;25.30;99.90;;;;;;5023823;28;20523;-80
2023/10/17 11:28:06;;;;;;;5.27;2.33;;;25.10;99.90;;;;;;5021467;28;20445;-80
2023/10/17 11:30:42;;;;;;;3.93;1.77;;;24.60;99.90;;;;;;5023050;28;20417;-80
2023/10/17 11:33:11;;;;;;;3.43;1.90;;;24.60;99.90;;;;;;5025893;28;20426;-81
2023/10/17 11:35:48;;;;;;;4.77;2.00;;;24.60;99.90;;;;;;5024887;28;20455;-81
2023/10/17 11:38:38;;;;;;;2.53;1.80;;;24.50;99.90;;;;;;5019505;28;20462;-81
2023/10/17 11:41:07;;;;;;;4.17;2.20;;;24.10;99.90;;;;;;5020297;28;20436;-80
2023/10/17 11:43:51;;;;;;;3.40;1.73;;;24.30;99.90;;;;;;5021158;28;20462;-80
2023/10/17 11:46:30;;;;;;;4.33;2.37;;;24.30;99.90;;;;;;5021618;28;20531;-80
2023/10/17 11:49:26;;;;;;;2.70;1.47;;;24.70;99.90;;;;;;5016522;28;20437;-80
2023/10/17 11:52:13;;;;;;;2.67;1.60;;;24.50;99.50;;;;;;5013227;28;20565;-80
2023/10/17 11:55:11;;;;;;;4.23;1.70;;;24.10;98.00;;;;;;5021056;28;20466;-81
2023/10/17 11:57:37;;;;;;;5.77;2.20;;;23.70;97.50;;;;;;5023209;28;20431;-80
2023/10/17 12:02:46;;;;;;;7.20;1.70;;;23.80;96.20;;;;;;5023599;28;20761;-80
2023/10/17 12:05:22;;;;;;;7.97;1.90;;;23.50;95.40;;;;;;5028980;28;20550;-79
2023/10/17 12:07:57;;;;;;;3.67;1.60;;;23.70;95.90;;;;;;5026509;28;20460;-79
2023/10/17 12:10:24;;;;;;;5.23;1.80;;;24.10;96.40;;;;;;5022325;28;20904;-80
2023/10/17 12:12:59;;;;;;;4.07;2.00;;;23.50;95.10;;;;;;5019138;28;20483;-79
2023/10/17 12:15:28;;;;;;;3.33;1.70;;;22.60;93.40;;;;;;5018607;28;20529;-80
2023/10/17 12:17:54;;;;;;;3.30;1.73;;;22.80;93.60;;;;;;5017309;28;20438;-80
2023/10/17 12:20:25;;;;;;;2.90;1.47;;;22.40;92.30;;;;;;5010473;28;20469;-80
2023/10/17 12:22:57;;;;;;;4.30;2.20;;;23.20;94.70;;;;;;5011316;28;20222;-79
2023/10/17 12:25:23;;;;;;;4.00;1.93;;;22.20;93.40;;;;;;5017700;28;20446;-80
2023/10/17 12:27:52;;;;;;;4.97;1.90;;;22.60;99.90;;;;;;5017337;28;20420;-77
2023/10/17 12:30:27;;;;;;;2.80;1.60;;;22.40;93.30;;;;;;5016349;28;20202;-80
2023/10/17 12:32:55;;;;;;;3.50;1.90;;;22.80;94.50;;;;;;5012991;28;20467;-80
2023/10/17 12:35:21;;;;;;;5.30;2.27;;;22.60;93.60;;;;;;5023562;28;20521;-80
2023/10/17 12:37:50;;;;;;;6.73;1.90;;;22.80;94.00;;;;;;5019110;28;20438;-80
2023/10/17 12:40:19;;;;;;;7.37;2.20;;;22.80;93.90;;;;;;5018616;28;20473;-79
2023/10/17 12:42:46;;;;;;;3.00;1.80;;;22.20;91.70;;;;;;5012891;28;20967;-79
2023/10/17 12:45:14;;;;;;;3.23;1.83;;;21.60;91.00;;;;;;5014481;28;20453;-79
2023/10/17 12:47:43;;;;;;;6.57;1.60;;;21.40;90.60;;;;;;5011964;28;20438;-80
2023/10/17 12:50:13;;;;;;;2.20;1.40;;;21.30;91.00;;;;;;5013576;28;20484;-80
2023/10/17 12:52:39;;;;;;;3.97;1.97;;;20.90;90.10;;;;;;5013009;28;20418;-80
2023/10/17 12:55:07;;;;;;;4.27;1.50;;;20.90;90.80;;;;;;5015140;28;20437;-80
2023/10/17 12:57:33;;;;;;;6.20;1.80;;;20.60;91.00;;;;;;5015100;28;20429;-80
2023/10/17 12:59:59;;;;;;;2.53;1.67;;;21.00;92.00;;;;;;5013737;28;20957;-80
2023/10/17 13:02:29;;;;;;;2.83;1.70;;;21.60;93.40;;;;;;5012359;28;20463;-79
2023/10/17 13:04:55;;;;;;;4.00;1.53;;;21.10;92.20;;;;;;5014738;28;20246;-80
2023/10/17 13:07:21;;;;;;;3.30;1.70;;;20.90;92.00;;;;;;5019018;28;20441;-80
2023/10/17 13:09:46;;;;;;;5.87;1.87;;;21.10;92.10;;;;;;5020302;28;20418;-79
2023/10/17 13:12:14;;;;;;;2.73;1.60;;;21.40;93.20;;;;;;5022079;28;20206;-81
2023/10/17 13:14:40;;;;;;;1.70;1.33;;;21.30;93.00;;;;;;5020390;28;20207;-79
2023/10/17 13:17:09;;;;;;;5.40;1.90;;;21.30;92.90;;;;;;5020420;28;20441;-79
2023/10/17 13:19:39;;;;;;;4.43;2.00;;;20.70;91.80;;;;;;5018169;28;20234;-80
2023/10/17 13:22:08;;;;;;;3.67;1.60;;;20.60;91.60;;;;;;5013660;28;20461;-79
2023/10/17 13:24:34;;;;;;;3.10;1.90;;;20.80;92.60;;;;;;5015207;28;20481;-77
2023/10/17 13:27:00;;;;;;;3.73;1.90;;;20.60;92.50;;;;;;5013999;28;20442;-79
2023/10/17 13:29:26;;;;;;;3.80;1.53;;;20.40;92.90;;;;;;5015781;28;20531;-79
2023/10/17 13:31:51;;;;;;;5.03;2.03;;;20.40;92.60;;;;;;5017485;28;20180;-80
2023/10/17 13:34:22;;;;;;;5.17;2.10;;;20.60;93.00;;;;;;5022782;28;20202;-80
2023/10/17 13:36:48;;;;;;;6.13;2.20;;;20.10;91.70;;;;;;5025386;28;20207;-81
2023/10/17 13:39:13;;;;;;;3.70;1.50;;;20.40;93.10;;;;;;5024506;28;20444;-79
2023/10/17 13:41:39;;;;;;;2.93;1.63;;;20.00;92.00;;;;;;5023773;28;20459;-80
2023/10/17 13:44:05;;;;;;;8.33;2.17;;;19.80;92.00;;;;;;5024938;28;20218;-80
2023/10/17 13:46:35;;;;;;;4.37;1.93;;;19.80;92.70;;;;;;5024392;28;20188;-80
2023/10/17 13:49:00;;;;;;;3.77;1.70;;;19.90;93.30;;;;;;5020087;28;20176;-80
2023/10/17 13:51:34;;;;;;;2.37;1.70;;;20.10;94.20;;;;;;5021165;28;20499;-79
2023/10/17 13:53:59;;;;;;;2.70;1.70;;;19.40;91.90;;;;;;5020519;28;20208;-80
2023/10/17 13:56:27;;;;;;;3.93;1.60;;;19.70;92.50;;;;;;5022692;28;20442;-79
2023/10/17 13:58:52;;;;;;;4.03;1.73;;;19.30;92.10;;;;;;5022664;28;20194;-79
2023/10/17 14:01:27;;;;;;;9.30;2.00;;;19.30;92.00;;;;;;5022870;28;20422;-80
2023/10/17 14:03:54;;;;;;;4.20;1.93;;;19.00;92.80;;;;;;5023667;28;20218;-79
2023/10/17 14:06:20;;;;;;;4.00;1.60;;;18.80;92.50;;;;;;5022398;28;20480;-79
2023/10/17 14:08:46;;;;;;;3.60;1.57;;;18.80;93.00;;;;;;5023305;28;20842;-80
2023/10/17 14:11:17;;;;;;;4.90;1.53;;;18.90;94.40;;;;;;5022221;28;20183;-79
2023/10/17 14:13:47;;;;;;;4.83;1.50;;;18.90;94.20;;;;;;5022414;28;20183;-79
2023/10/17 14:16:12;;;;;;;5.73;1.37;;;18.80;94.10;;;;;;5022283;28;20429;-80
2023/10/17 14:18:43;;;;;;;2.00;1.40;;;19.30;95.90;;;;;;5019885;28;20438;-79
2023/10/17 14:24:00;;;;;;;2.80;1.70;;;19.10;95.30;;;;;;5021165;28;20480;-79
2023/10/17 14:26:29;;;;;;;2.23;1.37;;;18.80;95.20;;;;;;5022118;28;20434;-79
2023/10/17 14:28:56;;;;;;;3.00;1.60;;;18.80;95.30;;;;;;5022534;28;21017;-79
2023/10/17 14:31:23;;;;;;;1.77;1.30;;;18.70;95.70;;;;;;5021999;28;20434;-80
2023/10/17 14:33:52;;;;;;;2.93;1.70;;;18.90;96.00;;;;;;5021398;28;20446;-79
2023/10/17 14:36:18;;;;;;;2.70;1.27;;;19.10;97.00;;;;;;5021441;28;20437;-81
2023/10/17 14:38:44;;;;;;;2.60;1.77;;;19.30;97.60;;;;;;5024461;28;20485;-80
2023/10/17 14:41:11;;;;;;;10.67;1.90;;;19.20;96.80;;;;;;5025550;28;20418;-79
2023/10/17 14:43:46;;;;;;;3.27;1.30;;;19.30;97.50;;;;;;5021364;28;20212;-79
2023/10/17 14:46:12;;;;;;;1.93;1.30;;;19.40;98.20;;;;;;5024889;28;20522;-79
2023/10/17 14:48:56;;;;;;;2.30;1.40;;;19.30;97.80;;;;;;5025127;28;20421;-79
2023/10/17 14:51:22;;;;;;;3.10;1.57;;;19.10;97.30;;;;;;5024079;28;20410;-80
2023/10/17 14:53:48;;;;;;;3.87;1.43;;;19.00;99.90;;;;;;5022757;28;20890;-80
2023/10/17 14:56:13;;;;;;;2.40;1.60;;;18.90;96.50;;;;;;5023398;28;20554;-80
2023/10/17 14:58:40;;;;;;;2.80;1.53;;;18.60;96.60;;;;;;5024647;28;20183;-80
2023/10/17 15:01:06;;;;;;;2.43;1.57;;;18.60;96.70;;;;;;5024180;28;20175;-80
2023/10/17 15:03:32;;;;;;;4.07;1.93;;;18.40;96.40;;;;;;5022946;28;21009;-79
2023/10/17 15:05:57;;;;;;;2.77;1.60;;;18.40;96.50;;;;;;5025567;28;20434;-79
2023/10/17 15:08:23;;;;;;;2.80;1.20;;;18.40;96.60;;;;;;5025381;28;20175;-80
2023/10/17 15:10:48;;;;;;;3.73;1.40;;;18.20;97.40;;;;;;5024545;28;20243;-79
2023/10/17 15:13:14;;;;;;;2.00;1.50;;;17.70;98.90;;;;;;5024504;28;20194;-79
2023/10/17 15:15:41;;;;;;;2.83;1.27;;;17.70;97.50;;;;;;5024689;28;20515;-79
2023/10/17 15:18:08;;;;;;;4.30;1.73;;;17.60;97.20;;;;;;5022819;28;20199;-80
2023/10/17 15:20:34;;;;;;;2.17;1.10;;;17.60;97.20;;;;;;5023559;28;20410;-79